sensor_id;sensor_type;location;lat;lon;timestamp;pressure;altitude;pressure_sealevel;temperature;humidity
49813;BME280;35706;52.100;5.056;2023-09-08T00:00:21;101585.22;;;27.13;50.52
49813;BME280;35706;52.100;5.056;2023-09-08T00:01:22;101585.81;;;27.34;50.04
49813;BME280;35706;52.100;5.056;2023-09-08T00:02:23;101587.97;;;27.55;49.03
49813;BME280;35706;52.100;5.056;2023-09-08T00:03:24;101580.13;;;27.66;48.78
49813;BME280;35706;52.100;5.056;2023-09-08T00:04:24;101576.34;;;27.55;49.23
49813;BME280;35706;52.100;5.056;2023-09-08T00:05:24;101577.00;;;27.27;50.19
49813;BME280;35706;52.100;5.056;2023-09-08T00:06:25;101576.91;;;27.33;49.91
49813;BME280;35706;52.100;5.056;2023-09-08T00:07:25;101576.06;;;27.33;49.74
49813;BME280;35706;52.100;5.056;2023-09-08T00:08:25;101576.19;;;27.38;49.74
49813;BME280;35706;52.100;5.056;2023-09-08T00:09:26;101578.19;;;27.31;50.18
49813;BME280;35706;52.100;5.056;2023-09-08T00:10:26;101571.59;;;27.27;50.26
49813;BME280;35706;52.100;5.056;2023-09-08T00:11:27;101579.97;;;27.49;49.36
49813;BME280;35706;52.100;5.056;2023-09-08T00:12:27;101577.44;;;27.54;49.38
49813;BME280;35706;52.100;5.056;2023-09-08T00:13:27;101572.81;;;27.42;49.80
49813;BME280;35706;52.100;5.056;2023-09-08T00:14:27;101579.97;;;27.49;49.69
49813;BME280;35706;52.100;5.056;2023-09-08T00:15:28;101573.97;;;27.35;49.79
49813;BME280;35706;52.100;5.056;2023-09-08T00:16:28;101580.09;;;27.42;49.85
49813;BME280;35706;52.100;5.056;2023-09-08T00:17:29;101571.38;;;27.40;49.55
49813;BME280;35706;52.100;5.056;2023-09-08T00:18:30;101573.97;;;27.47;49.62
49813;BME280;35706;52.100;5.056;2023-09-08T00:19:30;101573.28;;;27.39;49.89
49813;BME280;35706;52.100;5.056;2023-09-08T00:20:30;101576.66;;;27.35;49.96
49813;BME280;35706;52.100;5.056;2023-09-08T00:21:31;101572.28;;;27.22;50.21
49813;BME280;35706;52.100;5.056;2023-09-08T00:22:31;101572.38;;;26.97;50.81
49813;BME280;35706;52.100;5.056;2023-09-08T00:23:31;101570.63;;;27.02;50.95
49813;BME280;35706;52.100;5.056;2023-09-08T00:24:32;101576.81;;;26.91;51.00
49813;BME280;35706;52.100;5.056;2023-09-08T00:25:32;101573.91;;;26.74;51.66
49813;BME280;35706;52.100;5.056;2023-09-08T00:26:32;101579.59;;;26.85;51.53
49813;BME280;35706;52.100;5.056;2023-09-08T00:27:33;101574.81;;;27.17;50.63
49813;BME280;35706;52.100;5.056;2023-09-08T00:28:33;101574.41;;;27.32;50.08
49813;BME280;35706;52.100;5.056;2023-09-08T00:29:33;101572.38;;;27.57;48.91
49813;BME280;35706;52.100;5.056;2023-09-08T00:30:33;101585.09;;;27.80;48.22
49813;BME280;35706;52.100;5.056;2023-09-08T00:31:34;101581.25;;;27.88;48.06
49813;BME280;35706;52.100;5.056;2023-09-08T00:32:35;101579.59;;;27.87;48.42
49813;BME280;35706;52.100;5.056;2023-09-08T00:33:35;101584.63;;;27.84;48.23
49813;BME280;35706;52.100;5.056;2023-09-08T00:34:37;101581.25;;;27.88;48.04
49813;BME280;35706;52.100;5.056;2023-09-08T00:35:38;101587.34;;;27.84;48.39
49813;BME280;35706;52.100;5.056;2023-09-08T00:36:38;101578.28;;;27.90;47.58
49813;BME280;35706;52.100;5.056;2023-09-08T00:37:40;101579.53;;;27.64;48.92
49813;BME280;35706;52.100;5.056;2023-09-08T00:38:40;101581.41;;;27.63;48.83
49813;BME280;35706;52.100;5.056;2023-09-08T00:39:41;101582.00;;;27.77;48.20
49813;BME280;35706;52.100;5.056;2023-09-08T00:40:41;101578.28;;;27.90;48.09
49813;BME280;35706;52.100;5.056;2023-09-08T00:41:42;101576.53;;;27.84;48.13
49813;BME280;35706;52.100;5.056;2023-09-08T00:42:42;101572.09;;;27.89;47.95
49813;BME280;35706;52.100;5.056;2023-09-08T00:43:43;101581.50;;;27.98;47.90
49813;BME280;35706;52.100;5.056;2023-09-08T00:44:43;101584.78;;;27.89;47.88
49813;BME280;35706;52.100;5.056;2023-09-08T00:45:44;101587.25;;;27.90;48.06
49813;BME280;35706;52.100;5.056;2023-09-08T00:46:45;101580.44;;;27.99;47.52
49813;BME280;35706;52.100;5.056;2023-09-08T00:47:45;101580.56;;;28.05;47.67
49813;BME280;35706;52.100;5.056;2023-09-08T00:48:46;101582.31;;;27.99;47.61
49813;BME280;35706;52.100;5.056;2023-09-08T00:49:46;101584.31;;;28.04;47.65
49813;BME280;35706;52.100;5.056;2023-09-08T00:50:47;101575.97;;;27.93;47.91
49813;BME280;35706;52.100;5.056;2023-09-08T00:51:48;101581.56;;;27.80;48.03
49813;BME280;35706;52.100;5.056;2023-09-08T00:52:48;101581.69;;;27.85;47.84
49813;BME280;35706;52.100;5.056;2023-09-08T00:53:49;101576.63;;;27.77;48.58
49813;BME280;35706;52.100;5.056;2023-09-08T00:54:50;101579.16;;;27.60;49.08
49813;BME280;35706;52.100;5.056;2023-09-08T00:55:50;101582.00;;;27.77;48.46
49813;BME280;35706;52.100;5.056;2023-09-08T00:56:55;101583.31;;;27.74;48.16
49813;BME280;35706;52.100;5.056;2023-09-08T00:57:56;101578.63;;;27.70;48.17
49813;BME280;35706;52.100;5.056;2023-09-08T00:58:58;101585.41;;;27.60;49.47
49813;BME280;35706;52.100;5.056;2023-09-08T00:59:59;101586.69;;;27.58;49.40
49813;BME280;35706;52.100;5.056;2023-09-08T01:01:00;101584.56;;;27.48;50.31
49813;BME280;35706;52.100;5.056;2023-09-08T01:02:02;101584.81;;;27.70;48.83
49813;BME280;35706;52.100;5.056;2023-09-08T01:03:02;101582.66;;;27.37;49.97
49813;BME280;35706;52.100;5.056;2023-09-08T01:04:03;101581.78;;;27.25;51.05
49813;BME280;35706;52.100;5.056;2023-09-08T01:05:04;101577.88;;;27.20;50.90
49813;BME280;35706;52.100;5.056;2023-09-08T01:06:05;101584.06;;;27.39;50.68
49813;BME280;35706;52.100;5.056;2023-09-08T01:07:06;101578.03;;;27.26;50.92
49813;BME280;35706;52.100;5.056;2023-09-08T01:08:07;101579.75;;;27.20;51.54
49813;BME280;35706;52.100;5.056;2023-09-08T01:09:07;101578.31;;;27.17;51.57
49813;BME280;35706;52.100;5.056;2023-09-08T01:10:08;101580.56;;;27.20;50.72
49813;BME280;35706;52.100;5.056;2023-09-08T01:11:09;101581.91;;;27.30;50.76
49813;BME280;35706;52.100;5.056;2023-09-08T01:12:10;101579.81;;;27.32;50.39
49813;BME280;35706;52.100;5.056;2023-09-08T01:13:11;101583.66;;;27.24;51.32
49813;BME280;35706;52.100;5.056;2023-09-08T01:14:11;101578.78;;;27.14;51.09
49813;BME280;35706;52.100;5.056;2023-09-08T01:15:13;101581.00;;;27.36;50.52
49813;BME280;35706;52.100;5.056;2023-09-08T01:16:13;101584.78;;;27.35;50.20
49813;BME280;35706;52.100;5.056;2023-09-08T01:17:14;101575.72;;;27.41;50.29
49813;BME280;35706;52.100;5.056;2023-09-08T01:18:14;101576.28;;;27.31;50.72
49813;BME280;35706;52.100;5.056;2023-09-08T01:19:15;101578.41;;;27.41;50.54
49813;BME280;35706;52.100;5.056;2023-09-08T01:20:27;101571.63;;;27.38;50.64
49813;BME280;35706;52.100;5.056;2023-09-08T01:22:08;101576.66;;;27.35;50.46
49813;BME280;35706;52.100;5.056;2023-09-08T01:23:21;101581.16;;;27.53;49.93
49813;BME280;35706;52.100;5.056;2023-09-08T01:26:57;101577.59;;;27.10;51.80
49813;BME280;35706;52.100;5.056;2023-09-08T01:28:00;101573.09;;;27.23;50.96
49813;BME280;35706;52.100;5.056;2023-09-08T01:29:02;101577.94;;;27.32;50.47
49813;BME280;35706;52.100;5.056;2023-09-08T01:30:05;101578.78;;;27.33;50.51
49813;BME280;35706;52.100;5.056;2023-09-08T01:31:07;101575.19;;;27.20;51.32
49813;BME280;35706;52.100;5.056;2023-09-08T01:32:08;101576.00;;;27.21;51.49
49813;BME280;35706;52.100;5.056;2023-09-08T01:33:09;101570.41;;;27.04;51.75
49813;BME280;35706;52.100;5.056;2023-09-08T01:34:09;101572.06;;;27.05;51.77
49813;BME280;35706;52.100;5.056;2023-09-08T01:35:10;101573.72;;;27.06;51.39
49813;BME280;35706;52.100;5.056;2023-09-08T01:36:11;101569.41;;;27.17;50.60
49813;BME280;35706;52.100;5.056;2023-09-08T01:37:11;101568.09;;;27.08;51.29
49813;BME280;35706;52.100;5.056;2023-09-08T01:38:11;101569.94;;;27.07;50.97
49813;BME280;35706;52.100;5.056;2023-09-08T01:39:12;101578.03;;;27.07;51.08
49813;BME280;35706;52.100;5.056;2023-09-08T01:40:13;101563.38;;;27.03;51.34
49813;BME280;35706;52.100;5.056;2023-09-08T01:41:13;101573.81;;;26.99;51.72
49813;BME280;35706;52.100;5.056;2023-09-08T01:42:14;101579.56;;;27.03;51.64
49813;BME280;35706;52.100;5.056;2023-09-08T01:43:14;101575.91;;;26.97;51.83
49813;BME280;35706;52.100;5.056;2023-09-08T01:44:14;101579.03;;;26.94;51.68
49813;BME280;35706;52.100;5.056;2023-09-08T01:45:14;101574.59;;;26.88;52.23
49813;BME280;35706;52.100;5.056;2023-09-08T01:46:15;101572.13;;;26.98;52.07
49813;BME280;35706;52.100;5.056;2023-09-08T01:47:16;101569.63;;;26.85;52.22
49813;BME280;35706;52.100;5.056;2023-09-08T01:48:16;101576.31;;;26.83;52.38
49813;BME280;35706;52.100;5.056;2023-09-08T01:49:16;101579.44;;;26.79;52.00
49813;BME280;35706;52.100;5.056;2023-09-08T01:50:17;101576.44;;;26.88;51.66
49813;BME280;35706;52.100;5.056;2023-09-08T01:51:21;101564.38;;;26.90;51.40
49813;BME280;35706;52.100;5.056;2023-09-08T01:52:22;101575.22;;;27.02;51.11
49813;BME280;35706;52.100;5.056;2023-09-08T01:53:22;101574.81;;;26.87;51.95
49813;BME280;35706;52.100;5.056;2023-09-08T01:54:23;101571.13;;;26.81;51.97
49813;BME280;35706;52.100;5.056;2023-09-08T01:55:23;101572.69;;;26.89;51.49
49813;BME280;35706;52.100;5.056;2023-09-08T01:56:23;101568.50;;;26.93;51.40
49813;BME280;35706;52.100;5.056;2023-09-08T01:57:24;101567.75;;;26.86;51.58
49813;BME280;35706;52.100;5.056;2023-09-08T01:58:24;101572.19;;;26.80;51.53
49813;BME280;35706;52.100;5.056;2023-09-08T01:59:25;101567.63;;;26.80;51.25
49813;BME280;35706;52.100;5.056;2023-09-08T02:00:25;101569.53;;;26.92;50.71
49813;BME280;35706;52.100;5.056;2023-09-08T02:01:25;101573.44;;;26.96;50.37
49813;BME280;35706;52.100;5.056;2023-09-08T02:02:26;101569.91;;;26.95;51.18
49813;BME280;35706;52.100;5.056;2023-09-08T02:03:26;101570.03;;;27.00;50.87
49813;BME280;35706;52.100;5.056;2023-09-08T02:04:26;101567.59;;;26.99;50.65
49813;BME280;35706;52.100;5.056;2023-09-08T02:05:26;101574.94;;;26.92;50.88
49813;BME280;35706;52.100;5.056;2023-09-08T02:06:27;101573.44;;;26.96;50.25
49813;BME280;35706;52.100;5.056;2023-09-08T02:07:27;101565.91;;;26.68;51.12
49813;BME280;35706;52.100;5.056;2023-09-08T02:08:28;101571.72;;;26.65;51.59
49813;BME280;35706;52.100;5.056;2023-09-08T02:09:32;101573.22;;;26.79;51.00
49813;BME280;35706;52.100;5.056;2023-09-08T02:10:33;101568.97;;;26.71;51.42
49813;BME280;35706;52.100;5.056;2023-09-08T02:11:33;101567.53;;;26.69;51.17
49813;BME280;35706;52.100;5.056;2023-09-08T02:12:33;101569.50;;;26.62;51.84
49813;BME280;35706;52.100;5.056;2023-09-08T02:13:33;101570.47;;;26.67;51.61
49813;BME280;35706;52.100;5.056;2023-09-08T02:14:34;101568.94;;;26.53;52.39
49813;BME280;35706;52.100;5.056;2023-09-08T02:15:35;101567.28;;;26.52;52.18
49813;BME280;35706;52.100;5.056;2023-09-08T02:16:36;101564.31;;;26.60;52.05
49813;BME280;35706;52.100;5.056;2023-09-08T02:17:36;101558.38;;;26.51;52.52
49813;BME280;35706;52.100;5.056;2023-09-08T02:18:37;101561.78;;;26.65;51.82
49813;BME280;35706;52.100;5.056;2023-09-08T02:19:37;101560.72;;;26.66;51.50
49813;BME280;35706;52.100;5.056;2023-09-08T02:20:37;101560.28;;;26.69;50.92
49813;BME280;35706;52.100;5.056;2023-09-08T02:21:38;101566.81;;;26.62;51.58
49813;BME280;35706;52.100;5.056;2023-09-08T02:22:38;101565.16;;;26.60;51.10
49813;BME280;35706;52.100;5.056;2023-09-08T02:23:38;101554.66;;;26.52;51.73
49813;BME280;35706;52.100;5.056;2023-09-08T02:24:39;101558.25;;;26.65;51.18
49813;BME280;35706;52.100;5.056;2023-09-08T02:25:39;101555.50;;;26.71;51.27
49813;BME280;35706;52.100;5.056;2023-09-08T02:26:40;101554.41;;;26.54;51.99
49813;BME280;35706;52.100;5.056;2023-09-08T02:27:40;101549.09;;;26.47;52.28
49813;BME280;35706;52.100;5.056;2023-09-08T02:28:40;101553.75;;;26.40;52.28
49813;BME280;35706;52.100;5.056;2023-09-08T02:29:41;101552.56;;;26.54;51.84
49813;BME280;35706;52.100;5.056;2023-09-08T02:30:41;101559.34;;;26.38;52.33
49813;BME280;35706;52.100;5.056;2023-09-08T02:31:41;101559.66;;;26.49;51.92
49813;BME280;35706;52.100;5.056;2023-09-08T02:32:42;101555.84;;;26.38;52.45
49813;BME280;35706;52.100;5.056;2023-09-08T02:33:43;101553.38;;;26.36;52.47
49813;BME280;35706;52.100;5.056;2023-09-08T02:34:43;101554.66;;;26.34;52.21
49813;BME280;35706;52.100;5.056;2023-09-08T02:35:43;101552.94;;;26.39;52.10
49813;BME280;35706;52.100;5.056;2023-09-08T02:36:44;101555.16;;;26.43;51.93
49813;BME280;35706;52.100;5.056;2023-09-08T02:37:44;101551.06;;;26.58;51.09
49813;BME280;35706;52.100;5.056;2023-09-08T02:38:44;101551.72;;;26.54;51.40
49813;BME280;35706;52.100;5.056;2023-09-08T02:39:45;101558.59;;;26.56;51.61
49813;BME280;35706;52.100;5.056;2023-09-08T02:40:45;101552.56;;;26.36;52.25
49813;BME280;35706;52.100;5.056;2023-09-08T02:41:45;101550.88;;;26.35;51.81
49813;BME280;35706;52.100;5.056;2023-09-08T02:42:46;101558.34;;;26.58;51.00
49813;BME280;35706;52.100;5.056;2023-09-08T02:43:46;101555.00;;;26.56;50.43
49813;BME280;35706;52.100;5.056;2023-09-08T02:44:47;101557.19;;;26.47;51.49
49813;BME280;35706;52.100;5.056;2023-09-08T02:45:47;101558.25;;;26.46;51.66
49813;BME280;35706;52.100;5.056;2023-09-08T02:46:48;101561.59;;;26.41;51.93
49813;BME280;35706;52.100;5.056;2023-09-08T02:47:48;101560.41;;;26.37;52.39
49813;BME280;35706;52.100;5.056;2023-09-08T02:48:49;101560.34;;;26.44;51.80
49813;BME280;35706;52.100;5.056;2023-09-08T02:49:50;101566.41;;;26.58;51.33
49813;BME280;35706;52.100;5.056;2023-09-08T02:50:50;101563.34;;;26.54;51.09
49813;BME280;35706;52.100;5.056;2023-09-08T02:51:50;101568.50;;;26.56;51.02
49813;BME280;35706;52.100;5.056;2023-09-08T02:52:50;101564.16;;;26.36;52.16
49813;BME280;35706;52.100;5.056;2023-09-08T02:53:51;101567.94;;;26.29;52.15
49813;BME280;35706;52.100;5.056;2023-09-08T02:54:51;101564.41;;;26.10;52.40
49813;BME280;35706;52.100;5.056;2023-09-08T02:55:51;101568.56;;;26.31;51.63
49813;BME280;35706;52.100;5.056;2023-09-08T02:56:52;101557.88;;;26.43;51.62
49813;BME280;35706;52.100;5.056;2023-09-08T02:57:52;101567.22;;;26.22;52.13
49813;BME280;35706;52.100;5.056;2023-09-08T02:58:52;101559.34;;;26.38;51.87
49813;BME280;35706;52.100;5.056;2023-09-08T02:59:53;101566.47;;;26.33;51.90
49813;BME280;35706;52.100;5.056;2023-09-08T03:00:56;101564.59;;;26.15;52.68
49813;BME280;35706;52.100;5.056;2023-09-08T03:01:56;101571.91;;;26.26;51.75
49813;BME280;35706;52.100;5.056;2023-09-08T03:02:57;101562.94;;;26.32;51.73
49813;BME280;35706;52.100;5.056;2023-09-08T03:03:57;101575.97;;;26.17;51.99
49813;BME280;35706;52.100;5.056;2023-09-08T03:04:57;101565.94;;;26.06;52.60
49813;BME280;35706;52.100;5.056;2023-09-08T03:05:58;101565.44;;;26.34;51.72
49813;BME280;35706;52.100;5.056;2023-09-08T03:07:03;101562.06;;;26.38;51.45
49813;BME280;35706;52.100;5.056;2023-09-08T03:08:03;101562.56;;;26.29;52.00
49813;BME280;35706;52.100;5.056;2023-09-08T03:09:05;101563.84;;;26.08;52.52
49813;BME280;35706;52.100;5.056;2023-09-08T03:10:05;101559.78;;;26.17;52.44
49813;BME280;35706;52.100;5.056;2023-09-08T03:11:08;101566.34;;;26.03;52.66
49813;BME280;35706;52.100;5.056;2023-09-08T03:12:08;101560.81;;;25.97;52.96
49813;BME280;35706;52.100;5.056;2023-09-08T03:13:09;101559.41;;;26.13;52.29
49813;BME280;35706;52.100;5.056;2023-09-08T03:14:09;101557.25;;;26.22;51.55
49813;BME280;35706;52.100;5.056;2023-09-08T03:15:10;101557.16;;;26.10;52.46
49813;BME280;35706;52.100;5.056;2023-09-08T03:16:10;101558.59;;;26.13;51.93
49813;BME280;35706;52.100;5.056;2023-09-08T03:17:11;101559.47;;;26.07;52.51
49813;BME280;35706;52.100;5.056;2023-09-08T03:18:12;101558.97;;;26.16;52.38
49813;BME280;35706;52.100;5.056;2023-09-08T03:19:12;101549.63;;;26.19;51.82
49813;BME280;35706;52.100;5.056;2023-09-08T03:20:13;101554.03;;;26.13;52.48
49813;BME280;35706;52.100;5.056;2023-09-08T03:21:14;101553.16;;;25.94;52.94
49813;BME280;35706;52.100;5.056;2023-09-08T03:22:14;101550.47;;;25.94;52.52
49813;BME280;35706;52.100;5.056;2023-09-08T03:23:15;101554.59;;;25.97;52.31
49813;BME280;35706;52.100;5.056;2023-09-08T03:24:15;101554.09;;;26.07;52.22
49813;BME280;35706;52.100;5.056;2023-09-08T03:25:15;101553.06;;;26.08;52.50
49813;BME280;35706;52.100;5.056;2023-09-08T03:26:16;101552.13;;;26.14;51.81
49813;BME280;35706;52.100;5.056;2023-09-08T03:27:16;101551.00;;;26.03;52.00
49813;BME280;35706;52.100;5.056;2023-09-08T03:28:16;101543.47;;;26.12;52.17
49813;BME280;35706;52.100;5.056;2023-09-08T03:29:17;101553.97;;;25.95;52.90
49813;BME280;35706;52.100;5.056;2023-09-08T03:30:17;101546.00;;;26.07;52.51
49813;BME280;35706;52.100;5.056;2023-09-08T03:31:18;101545.66;;;26.22;51.06
49813;BME280;35706;52.100;5.056;2023-09-08T03:32:18;101537.59;;;25.96;52.42
49813;BME280;35706;52.100;5.056;2023-09-08T03:33:18;101544.94;;;25.89;52.93
49813;BME280;35706;52.100;5.056;2023-09-08T03:34:19;101541.81;;;25.86;53.25
49813;BME280;35706;52.100;5.056;2023-09-08T03:35:20;101544.13;;;25.82;52.69
49813;BME280;35706;52.100;5.056;2023-09-08T03:36:21;101545.53;;;25.91;52.70
49813;BME280;35706;52.100;5.056;2023-09-08T03:37:21;101547.06;;;25.80;53.38
49813;BME280;35706;52.100;5.056;2023-09-08T03:38:22;101538.91;;;25.87;53.03
49813;BME280;35706;52.100;5.056;2023-09-08T03:39:23;101542.88;;;25.85;53.18
49813;BME280;35706;52.100;5.056;2023-09-08T03:40:23;101546.81;;;25.89;53.06
49813;BME280;35706;52.100;5.056;2023-09-08T03:41:24;101545.59;;;25.78;52.65
49813;BME280;35706;52.100;5.056;2023-09-08T03:42:24;101537.84;;;25.63;53.91
49813;BME280;35706;52.100;5.056;2023-09-08T03:43:24;101545.44;;;25.73;53.67
49813;BME280;35706;52.100;5.056;2023-09-08T03:44:24;101537.16;;;25.74;53.74
49813;BME280;35706;52.100;5.056;2023-09-08T03:45:25;101547.31;;;25.72;53.75
49813;BME280;35706;52.100;5.056;2023-09-08T03:46:25;101546.06;;;25.75;53.68
49813;BME280;35706;52.100;5.056;2023-09-08T03:47:25;101537.66;;;25.65;53.98
49813;BME280;35706;52.100;5.056;2023-09-08T03:48:26;101534.53;;;25.68;53.53
49813;BME280;35706;52.100;5.056;2023-09-08T03:49:26;101542.75;;;25.73;53.44
49813;BME280;35706;52.100;5.056;2023-09-08T03:50:26;101539.34;;;25.84;53.07
49813;BME280;35706;52.100;5.056;2023-09-08T03:51:27;101536.44;;;25.86;52.82
49813;BME280;35706;52.100;5.056;2023-09-08T03:52:28;101533.34;;;25.89;52.36
49813;BME280;35706;52.100;5.056;2023-09-08T03:53:28;101538.91;;;25.87;52.69
49813;BME280;35706;52.100;5.056;2023-09-08T03:54:29;101533.03;;;25.72;53.50
49813;BME280;35706;52.100;5.056;2023-09-08T03:55:29;101538.84;;;25.69;53.60
49813;BME280;35706;52.100;5.056;2023-09-08T03:56:29;101526.06;;;25.64;53.93
49813;BME280;35706;52.100;5.056;2023-09-08T03:57:30;101539.13;;;25.60;54.05
49813;BME280;35706;52.100;5.056;2023-09-08T03:58:30;101530.44;;;25.58;53.27
49813;BME280;35706;52.100;5.056;2023-09-08T03:59:31;101528.34;;;25.60;53.93
49813;BME280;35706;52.100;5.056;2023-09-08T04:00:31;101535.75;;;25.72;53.72
49813;BME280;35706;52.100;5.056;2023-09-08T04:01:31;101532.16;;;25.53;54.12
49813;BME280;35706;52.100;5.056;2023-09-08T04:02:32;101536.44;;;25.60;53.72
49813;BME280;35706;52.100;5.056;2023-09-08T04:03:33;101531.72;;;25.56;53.50
49813;BME280;35706;52.100;5.056;2023-09-08T04:04:33;101534.34;;;25.63;53.35
49813;BME280;35706;52.100;5.056;2023-09-08T04:05:33;101535.50;;;25.48;54.06
49813;BME280;35706;52.100;5.056;2023-09-08T04:06:34;101544.06;;;25.38;54.40
49813;BME280;35706;52.100;5.056;2023-09-08T04:07:34;101540.25;;;25.46;54.18
49813;BME280;35706;52.100;5.056;2023-09-08T04:08:34;101545.75;;;25.33;54.47
49813;BME280;35706;52.100;5.056;2023-09-08T04:09:35;101537.97;;;25.50;54.50
49813;BME280;35706;52.100;5.056;2023-09-08T04:10:35;101539.38;;;25.52;54.53
49813;BME280;35706;52.100;5.056;2023-09-08T04:11:35;101535.81;;;25.58;54.00
49813;BME280;35706;52.100;5.056;2023-09-08T04:12:35;101535.50;;;25.48;54.68
49813;BME280;35706;52.100;5.056;2023-09-08T04:13:37;101537.63;;;25.39;54.63
49813;BME280;35706;52.100;5.056;2023-09-08T04:14:37;101534.38;;;25.31;54.71
49813;BME280;35706;52.100;5.056;2023-09-08T04:15:38;101536.09;;;25.25;55.17
49813;BME280;35706;52.100;5.056;2023-09-08T04:16:38;101537.63;;;25.39;54.56
49813;BME280;35706;52.100;5.056;2023-09-08T04:17:38;101531.59;;;25.44;54.29
49813;BME280;35706;52.100;5.056;2023-09-08T04:18:39;101534.88;;;25.46;54.35
49813;BME280;35706;52.100;5.056;2023-09-08T04:19:39;101535.78;;;25.40;54.61
49813;BME280;35706;52.100;5.056;2023-09-08T04:20:39;101536.97;;;25.44;54.42
49813;BME280;35706;52.100;5.056;2023-09-08T04:21:40;101531.16;;;25.47;54.05
49813;BME280;35706;52.100;5.056;2023-09-08T04:22:41;101540.56;;;25.38;54.98
49813;BME280;35706;52.100;5.056;2023-09-08T04:23:41;101537.25;;;25.36;54.84
49813;BME280;35706;52.100;5.056;2023-09-08T04:24:42;101526.84;;;25.39;54.25
49813;BME280;35706;52.100;5.056;2023-09-08T04:25:42;101530.91;;;25.55;53.75
49813;BME280;35706;52.100;5.056;2023-09-08T04:26:42;101541.53;;;25.69;53.30
49813;BME280;35706;52.100;5.056;2023-09-08T04:27:42;101534.00;;;25.52;54.20
49813;BME280;35706;52.100;5.056;2023-09-08T04:28:44;101533.28;;;25.38;54.98
49813;BME280;35706;52.100;5.056;2023-09-08T04:29:44;101531.00;;;25.42;54.91
49813;BME280;35706;52.100;5.056;2023-09-08T04:30:45;101531.25;;;25.34;55.15
49813;BME280;35706;52.100;5.056;2023-09-08T04:31:45;101535.78;;;25.40;54.97
49813;BME280;35706;52.100;5.056;2023-09-08T04:32:45;101535.16;;;25.38;54.54
49813;BME280;35706;52.100;5.056;2023-09-08T04:33:46;101533.75;;;25.29;54.69
49813;BME280;35706;52.100;5.056;2023-09-08T04:34:46;101534.59;;;25.29;55.01
49813;BME280;35706;52.100;5.056;2023-09-08T04:35:46;101536.84;;;25.32;54.77
49813;BME280;35706;52.100;5.056;2023-09-08T04:36:47;101538.88;;;25.37;54.18
49813;BME280;35706;52.100;5.056;2023-09-08T04:37:47;101535.59;;;25.35;54.45
49813;BME280;35706;52.100;5.056;2023-09-08T04:38:48;101541.38;;;25.38;54.39
49813;BME280;35706;52.100;5.056;2023-09-08T04:39:48;101534.22;;;25.26;54.95
49813;BME280;35706;52.100;5.056;2023-09-08T04:40:48;101536.06;;;25.18;54.94
49813;BME280;35706;52.100;5.056;2023-09-08T04:41:49;101542.31;;;25.12;55.29
49813;BME280;35706;52.100;5.056;2023-09-08T04:42:49;101536.31;;;25.10;55.69
49813;BME280;35706;52.100;5.056;2023-09-08T04:43:49;101534.09;;;25.07;55.47
49813;BME280;35706;52.100;5.056;2023-09-08T04:44:49;101534.03;;;25.14;54.92
49813;BME280;35706;52.100;5.056;2023-09-08T04:45:50;101526.91;;;25.33;54.09
49813;BME280;35706;52.100;5.056;2023-09-08T04:46:51;101534.72;;;25.41;53.56
49813;BME280;35706;52.100;5.056;2023-09-08T04:47:52;101533.28;;;25.38;53.70
49813;BME280;35706;52.100;5.056;2023-09-08T04:48:52;101534.50;;;25.43;53.65
49813;BME280;35706;52.100;5.056;2023-09-08T04:49:53;101534.56;;;25.36;53.90
49813;BME280;35706;52.100;5.056;2023-09-08T04:50:53;101530.47;;;25.27;53.89
49813;BME280;35706;52.100;5.056;2023-09-08T04:51:53;101532.69;;;25.36;53.75
49813;BME280;35706;52.100;5.056;2023-09-08T04:52:54;101535.91;;;25.13;54.86
49813;BME280;35706;52.100;5.056;2023-09-08T04:53:54;101531.75;;;25.17;54.22
49813;BME280;35706;52.100;5.056;2023-09-08T04:54:54;101534.69;;;25.09;54.86
49813;BME280;35706;52.100;5.056;2023-09-08T04:55:54;101535.19;;;24.93;55.12
49813;BME280;35706;52.100;5.056;2023-09-08T04:56:55;101531.06;;;24.90;54.98
49813;BME280;35706;52.100;5.056;2023-09-08T04:57:56;101530.25;;;24.90;55.33
49813;BME280;35706;52.100;5.056;2023-09-08T04:58:56;101539.53;;;24.94;56.00
49813;BME280;35706;52.100;5.056;2023-09-08T04:59:58;101540.81;;;24.91;55.28
49813;BME280;35706;52.100;5.056;2023-09-08T05:00:58;101538.13;;;24.91;55.57
49813;BME280;35706;52.100;5.056;2023-09-08T05:01:58;101543.00;;;25.01;55.08
49813;BME280;35706;52.100;5.056;2023-09-08T05:02:59;101541.13;;;25.02;54.59
49813;BME280;35706;52.100;5.056;2023-09-08T05:03:59;101541.97;;;25.02;55.15
49813;BME280;35706;52.100;5.056;2023-09-08T05:04:59;101543.56;;;25.10;54.88
49813;BME280;35706;52.100;5.056;2023-09-08T05:06:00;101538.84;;;25.05;54.89
49813;BME280;35706;52.100;5.056;2023-09-08T05:07:01;101538.88;;;24.98;55.20
49813;BME280;35706;52.100;5.056;2023-09-08T05:08:01;101541.53;;;25.05;55.45
49813;BME280;35706;52.100;5.056;2023-09-08T05:09:02;101542.44;;;24.92;55.83
49813;BME280;35706;52.100;5.056;2023-09-08T05:10:03;101541.38;;;25.00;55.18
49813;BME280;35706;52.100;5.056;2023-09-08T05:11:03;101543.03;;;24.94;55.42
49813;BME280;35706;52.100;5.056;2023-09-08T05:12:03;101542.34;;;25.06;55.15
49813;BME280;35706;52.100;5.056;2023-09-08T05:13:04;101543.16;;;25.13;54.88
49813;BME280;35706;52.100;5.056;2023-09-08T05:14:04;101546.19;;;24.91;55.02
49813;BME280;35706;52.100;5.056;2023-09-08T05:15:05;101539.72;;;24.99;55.17
49813;BME280;35706;52.100;5.056;2023-09-08T05:16:10;101547.97;;;25.04;55.32
49813;BME280;35706;52.100;5.056;2023-09-08T05:17:11;101537.47;;;24.96;55.82
49813;BME280;35706;52.100;5.056;2023-09-08T05:18:11;101536.72;;;25.14;55.34
49813;BME280;35706;52.100;5.056;2023-09-08T05:19:12;101547.09;;;25.10;55.09
49813;BME280;35706;52.100;5.056;2023-09-08T05:20:13;101545.41;;;25.16;54.41